createdAt,value
2017-12-22T00:02:05.416Z,3.70
2017-12-22T00:04:31.768Z,3.70
2017-12-22T00:06:58.134Z,3.70
2017-12-22T00:09:25.297Z,3.80
2017-12-22T00:11:53.425Z,3.80
2017-12-22T00:14:19.774Z,3.80
2017-12-22T00:16:46.102Z,3.80
2017-12-22T00:19:12.472Z,3.90
2017-12-22T00:21:39.562Z,4.00
2017-12-22T00:24:05.923Z,4.00
2017-12-22T00:26:32.312Z,3.90
2017-12-22T00:28:58.747Z,4.00
2017-12-22T00:31:25.112Z,4.00
2017-12-22T00:33:51.481Z,4.00
2017-12-22T00:36:19.639Z,4.20
2017-12-22T00:38:46.809Z,4.30
2017-12-22T00:41:13.179Z,4.20
2017-12-22T00:43:39.511Z,4.30
2017-12-22T00:46:05.864Z,4.20
2017-12-22T00:48:33.983Z,4.20
2017-12-22T00:51:00.319Z,4.20
2017-12-22T00:53:26.686Z,4.30
2017-12-22T00:55:53.023Z,4.20
2017-12-22T00:58:19.371Z,4.20
2017-12-22T01:00:46.211Z,4.30
2017-12-22T01:03:12.554Z,4.40
2017-12-22T01:05:38.891Z,4.40
2017-12-22T01:08:05.231Z,4.40
2017-12-22T01:10:31.551Z,4.40
2017-12-22T01:12:57.893Z,4.50
2017-12-22T01:15:30.274Z,4.60
2017-12-22T01:18:03.455Z,4.50
2017-12-22T01:20:29.815Z,4.50
2017-12-22T01:22:56.898Z,4.40
2017-12-22T01:25:23.271Z,4.40
2017-12-22T01:27:49.604Z,4.50
2017-12-22T01:30:15.969Z,4.40
2017-12-22T01:32:42.309Z,4.40
2017-12-22T01:35:08.642Z,4.40
2017-12-22T01:37:34.974Z,4.40
2017-12-22T01:40:01.319Z,4.50
2017-12-22T01:42:27.671Z,4.60
2017-12-22T01:44:54.015Z,4.60
2017-12-22T01:47:20.371Z,4.50
2017-12-22T01:49:47.446Z,4.60
2017-12-22T01:52:13.785Z,4.60
2017-12-22T01:54:41.023Z,4.70
2017-12-22T01:57:07.356Z,4.70
2017-12-22T01:59:33.707Z,4.70
2017-12-22T02:02:00.042Z,4.60
2017-12-22T02:04:26.382Z,4.60
2017-12-22T02:06:52.711Z,4.60
2017-12-22T02:09:19.067Z,4.60
2017-12-22T02:11:45.391Z,4.50
2017-12-22T02:14:11.723Z,4.50
2017-12-22T02:16:38.078Z,4.50
2017-12-22T02:19:05.157Z,4.50
2017-12-22T02:21:31.511Z,4.50
2017-12-22T02:23:57.887Z,4.40
2017-12-22T02:26:24.284Z,4.40
2017-12-22T02:28:51.626Z,4.40
2017-12-22T02:31:17.971Z,4.40
2017-12-22T02:33:44.333Z,4.50
2017-12-22T02:36:11.433Z,4.60
2017-12-22T02:38:37.778Z,4.60
2017-12-22T02:41:05.121Z,4.60
2017-12-22T02:43:32.062Z,4.50
2017-12-22T02:45:58.465Z,4.50
2017-12-22T02:48:24.815Z,4.50
2017-12-22T02:50:51.167Z,4.50
2017-12-22T02:53:17.520Z,4.60
2017-12-22T02:55:46.397Z,4.60
2017-12-22T02:58:12.773Z,4.60
2017-12-22T03:00:39.843Z,4.60
2017-12-22T03:03:06.162Z,4.60
2017-12-22T03:05:32.484Z,4.50
2017-12-22T03:07:59.660Z,4.40
2017-12-22T03:10:26.019Z,4.40
2017-12-22T03:12:52.387Z,4.50
2017-12-22T03:15:19.496Z,4.40
2017-12-22T03:17:45.839Z,4.40
2017-12-22T03:20:13.670Z,4.50
2017-12-22T03:22:41.039Z,4.50
2017-12-22T03:25:07.368Z,4.40
2017-12-22T03:27:33.720Z,4.40
2017-12-22T03:30:00.064Z,4.30
2017-12-22T03:32:26.414Z,4.20
2017-12-22T03:34:54.065Z,4.20
2017-12-22T03:37:21.138Z,4.30
2017-12-22T03:39:47.484Z,4.20
2017-12-22T03:42:13.838Z,4.30
2017-12-22T03:44:40.199Z,4.30
2017-12-22T03:47:06.535Z,4.30
2017-12-22T03:49:32.867Z,4.30
2017-12-22T03:51:59.199Z,4.30
2017-12-22T03:54:25.531Z,4.20
2017-12-22T03:56:51.986Z,4.30
2017-12-22T03:59:19.051Z,4.20
2017-12-22T04:01:45.414Z,4.20
2017-12-22T04:04:11.743Z,4.30
2017-12-22T04:06:38.075Z,4.30
2017-12-22T04:09:04.472Z,4.40
2017-12-22T04:11:31.587Z,4.30
2017-12-22T04:13:57.973Z,4.30
2017-12-22T04:16:24.331Z,4.40
2017-12-22T04:18:50.667Z,4.40
2017-12-22T04:21:16.999Z,4.40
2017-12-22T04:23:43.327Z,4.40
2017-12-22T04:26:09.687Z,4.40
2017-12-22T04:28:36.039Z,4.40
2017-12-22T04:31:03.115Z,4.40
2017-12-22T04:33:29.455Z,4.40
2017-12-22T04:35:55.790Z,4.30
2017-12-22T04:38:22.151Z,4.30
2017-12-22T04:40:48.493Z,4.40
2017-12-22T04:43:15.567Z,4.40
2017-12-22T04:45:41.957Z,4.30
2017-12-22T04:48:08.303Z,4.40
2017-12-22T04:50:34.640Z,4.40
2017-12-22T04:53:00.968Z,4.30
2017-12-22T04:55:28.048Z,4.30
2017-12-22T04:57:54.403Z,4.20
2017-12-22T05:00:22.184Z,4.30
2017-12-22T05:02:49.303Z,4.30
2017-12-22T05:05:15.676Z,4.20
2017-12-22T05:07:43.781Z,4.20
2017-12-22T05:10:10.859Z,4.20
2017-12-22T05:12:38.226Z,4.20
2017-12-22T05:15:04.575Z,4.10
2017-12-22T05:17:30.919Z,4.10
2017-12-22T05:19:57.275Z,4.10
2017-12-22T05:22:25.363Z,4.20
2017-12-22T05:24:51.698Z,4.10
2017-12-22T05:27:18.070Z,4.20
2017-12-22T05:29:44.386Z,4.10
2017-12-22T05:32:10.727Z,4.20
2017-12-22T05:34:37.090Z,4.10
2017-12-22T05:37:03.437Z,4.00
2017-12-22T05:39:30.543Z,4.00
2017-12-22T05:41:56.890Z,4.00
2017-12-22T05:44:23.219Z,4.00
2017-12-22T05:46:49.564Z,4.00
2017-12-22T05:49:15.899Z,4.00
2017-12-22T05:51:42.963Z,4.00
2017-12-22T05:54:10.056Z,4.10
2017-12-22T05:56:36.391Z,4.10
2017-12-22T05:59:02.758Z,4.00
2017-12-22T06:01:29.134Z,4.00
2017-12-22T06:03:55.507Z,4.10
2017-12-22T06:06:21.846Z,4.20
2017-12-22T06:08:48.941Z,4.20
2017-12-22T06:11:15.272Z,4.20
2017-12-22T06:13:41.643Z,4.20
2017-12-22T06:16:07.972Z,4.30
2017-12-22T06:18:34.308Z,4.30
2017-12-22T06:21:01.743Z,4.30
2017-12-22T06:23:28.104Z,4.20
2017-12-22T06:25:54.488Z,4.20
2017-12-22T06:28:20.852Z,4.30
2017-12-22T06:30:47.212Z,4.30
2017-12-22T06:33:14.315Z,4.30
2017-12-22T06:35:40.647Z,4.20
2017-12-22T06:38:06.987Z,4.20
2017-12-22T06:40:33.322Z,4.20
2017-12-22T06:42:59.694Z,4.10
2017-12-22T06:45:26.769Z,4.10
2017-12-22T06:47:53.148Z,4.10
2017-12-22T06:50:19.495Z,4.00
2017-12-22T06:52:46.600Z,4.10
2017-12-22T06:55:12.935Z,4.10
2017-12-22T06:57:41.051Z,4.20
2017-12-22T07:00:07.391Z,4.10
2017-12-22T07:02:34.516Z,4.20
2017-12-22T07:05:01.611Z,4.20
2017-12-22T07:07:27.974Z,4.20
2017-12-22T07:09:54.361Z,4.30
2017-12-22T07:12:20.667Z,4.30
2017-12-22T07:14:47.015Z,4.40
2017-12-22T07:17:14.128Z,4.40
2017-12-22T07:19:44.019Z,4.30
2017-12-22T07:22:10.359Z,4.30
2017-12-22T07:24:36.706Z,4.40
2017-12-22T07:27:03.054Z,4.40
2017-12-22T07:29:29.407Z,4.50
2017-12-22T07:31:56.478Z,4.50
2017-12-22T07:34:22.851Z,4.50
2017-12-22T07:36:49.181Z,4.50
2017-12-22T07:39:15.524Z,4.50
2017-12-22T07:41:41.866Z,4.60
2017-12-22T07:44:08.191Z,4.60
2017-12-22T07:46:34.511Z,4.60
2017-12-22T07:49:00.846Z,4.60
2017-12-22T07:51:27.179Z,4.60
2017-12-22T07:53:53.510Z,4.40
2017-12-22T07:56:19.839Z,4.60
2017-12-22T07:58:46.934Z,4.40
2017-12-22T08:01:13.275Z,4.40
2017-12-22T08:03:39.623Z,4.50
2017-12-22T08:06:05.952Z,4.60
2017-12-22T08:08:32.307Z,4.60
2017-12-22T08:10:58.725Z,4.60
2017-12-22T08:13:25.060Z,4.50
2017-12-22T08:15:51.407Z,4.60
2017-12-22T08:18:17.747Z,4.60
2017-12-22T08:20:44.105Z,4.70
2017-12-22T08:23:10.456Z,4.70
2017-12-22T08:25:37.795Z,4.80
2017-12-22T08:28:04.131Z,4.80
2017-12-22T08:30:30.467Z,4.90
2017-12-22T08:32:57.186Z,5.00
2017-12-22T08:35:24.275Z,5.00
2017-12-22T08:37:51.621Z,5.10
2017-12-22T08:40:17.968Z,5.10
2017-12-22T08:42:44.295Z,5.10
2017-12-22T08:45:10.676Z,5.30
2017-12-22T08:47:37.736Z,5.40
2017-12-22T08:50:04.826Z,5.40
2017-12-22T08:52:31.163Z,5.30
2017-12-22T08:54:57.523Z,5.40
2017-12-22T08:57:23.892Z,5.50
2017-12-22T08:59:50.267Z,5.50
2017-12-22T09:02:16.599Z,5.60
2017-12-22T09:04:42.951Z,5.60
2017-12-22T09:07:09.283Z,5.70
2017-12-22T09:09:35.673Z,5.60
2017-12-22T09:12:02.004Z,5.50
2017-12-22T09:14:28.323Z,5.60
2017-12-22T09:16:54.680Z,5.60
2017-12-22T09:19:21.011Z,5.60
2017-12-22T09:21:47.355Z,5.60
2017-12-22T09:24:13.683Z,5.50
2017-12-22T09:26:40.044Z,5.40
2017-12-22T09:29:07.121Z,5.50
2017-12-22T09:31:33.457Z,5.40
2017-12-22T09:33:59.815Z,5.50
2017-12-22T09:36:26.439Z,5.50
2017-12-22T09:38:52.819Z,5.50
2017-12-22T09:41:19.163Z,5.60
2017-12-22T09:43:47.283Z,5.60
2017-12-22T09:46:13.619Z,5.60
2017-12-22T09:48:39.987Z,5.60
2017-12-22T09:51:06.382Z,5.60
2017-12-22T09:53:32.720Z,5.60
2017-12-22T09:55:59.583Z,5.60
2017-12-22T09:58:25.914Z,5.60
2017-12-22T10:00:52.268Z,5.70
2017-12-22T10:03:19.335Z,5.70
2017-12-22T10:05:45.672Z,5.70
2017-12-22T10:08:12.007Z,5.80
2017-12-22T10:10:39.372Z,5.70
2017-12-22T10:13:05.727Z,5.70
2017-12-22T10:15:32.056Z,5.70
2017-12-22T10:17:58.427Z,5.70
2017-12-22T10:20:25.788Z,5.70
2017-12-22T10:22:52.906Z,5.80
2017-12-22T10:25:19.400Z,5.80
2017-12-22T10:27:47.384Z,5.80
2017-12-22T10:30:15.535Z,5.80
2017-12-22T10:32:42.754Z,5.80
2017-12-22T10:35:09.952Z,5.80
2017-12-22T10:37:37.613Z,5.60
2017-12-22T10:40:03.972Z,5.70
2017-12-22T10:42:30.319Z,5.90
2017-12-22T10:44:56.663Z,5.90
2017-12-22T10:47:23.791Z,5.90
2017-12-22T10:49:50.146Z,5.80
2017-12-22T10:52:17.244Z,5.70
2017-12-22T10:54:43.602Z,5.70
2017-12-22T10:57:11.021Z,5.70
2017-12-22T10:59:37.457Z,5.70
2017-12-22T11:02:03.795Z,5.70
2017-12-22T11:04:30.143Z,5.70
2017-12-22T11:06:56.486Z,5.70
2017-12-22T11:09:22.815Z,5.80
2017-12-22T11:11:50.651Z,5.90
2017-12-22T11:14:16.979Z,5.90
2017-12-22T11:16:43.355Z,6.00
2017-12-22T11:19:09.690Z,6.00
2017-12-22T11:21:36.035Z,6.00
2017-12-22T11:24:02.396Z,6.10
2017-12-22T11:26:28.743Z,6.10
2017-12-22T11:28:55.119Z,6.10
2017-12-22T11:31:22.406Z,6.10
2017-12-22T11:33:48.744Z,6.10
2017-12-22T11:36:15.083Z,6.10
2017-12-22T11:38:41.415Z,6.20
2017-12-22T11:41:07.772Z,6.20
2017-12-22T11:43:34.124Z,6.30
2017-12-22T11:46:01.208Z,6.10
2017-12-22T11:48:27.643Z,6.10
2017-12-22T11:50:54.999Z,6.10
2017-12-22T11:53:21.343Z,6.20
2017-12-22T11:55:47.671Z,6.30
2017-12-22T11:58:15.063Z,6.10
2017-12-22T12:00:42.162Z,6.20
2017-12-22T12:03:08.520Z,6.10
2017-12-22T12:05:34.860Z,6.20
2017-12-22T12:08:01.200Z,6.20
2017-12-22T12:10:27.530Z,6.20
2017-12-22T12:12:53.867Z,6.10
2017-12-22T12:15:20.263Z,6.10
2017-12-22T12:17:46.591Z,6.30
2017-12-22T12:20:12.950Z,6.30
2017-12-22T12:22:39.308Z,6.20
2017-12-22T12:25:05.683Z,6.40
2017-12-22T12:27:32.080Z,6.30
2017-12-22T12:29:58.580Z,6.40
2017-12-22T12:32:24.871Z,6.40
2017-12-22T12:34:53.001Z,6.40
2017-12-22T12:37:19.347Z,6.30
2017-12-22T12:39:45.699Z,6.40
2017-12-22T12:42:12.800Z,6.30
2017-12-22T12:44:39.143Z,6.30
2017-12-22T12:47:05.479Z,6.20
2017-12-22T12:49:31.832Z,6.20
2017-12-22T12:51:58.219Z,6.30
2017-12-22T12:54:24.587Z,6.30
2017-12-22T12:56:50.919Z,6.30
2017-12-22T12:59:17.274Z,6.20
2017-12-22T13:01:44.344Z,6.30
2017-12-22T13:04:10.716Z,6.30
2017-12-22T13:06:37.102Z,6.30
2017-12-22T13:09:03.491Z,6.20
2017-12-22T13:11:29.815Z,6.10
2017-12-22T13:13:56.167Z,6.00
2017-12-22T13:16:22.492Z,6.00
2017-12-22T13:18:48.847Z,6.00
2017-12-22T13:21:15.913Z,5.90
2017-12-22T13:23:42.291Z,5.80
2017-12-22T13:26:09.388Z,5.80
2017-12-22T13:28:35.752Z,5.80
2017-12-22T13:31:02.096Z,5.90
2017-12-22T13:33:28.455Z,6.00
2017-12-22T13:35:55.527Z,5.90
2017-12-22T13:38:21.899Z,5.90
2017-12-22T13:40:48.251Z,6.00
2017-12-22T13:43:14.571Z,6.00
2017-12-22T13:45:40.931Z,5.90
2017-12-22T13:48:08.104Z,6.00
2017-12-22T13:50:34.647Z,6.00
2017-12-22T13:53:00.999Z,5.90
2017-12-22T13:55:27.339Z,5.90
2017-12-22T13:57:53.699Z,6.00
2017-12-22T14:00:20.040Z,6.00
2017-12-22T14:02:47.123Z,6.20
2017-12-22T14:05:14.487Z,6.10
2017-12-22T14:07:40.835Z,6.20
2017-12-22T14:10:07.180Z,6.10
2017-12-22T14:12:33.535Z,6.10
2017-12-22T14:15:00.603Z,6.00
2017-12-22T14:17:27.676Z,6.10
2017-12-22T15:12:56.647Z,4.80
2017-12-22T15:15:22.978Z,5.10
2017-12-22T15:17:50.042Z,5.50
2017-12-22T15:20:16.383Z,5.60
2017-12-22T15:22:42.727Z,5.80
2017-12-22T15:25:09.076Z,5.70
2017-12-22T15:27:36.236Z,5.80
2017-12-22T15:30:02.645Z,5.70
2017-12-22T15:32:28.987Z,5.70
2017-12-22T15:34:55.347Z,5.70
2017-12-22T15:37:21.676Z,5.70
2017-12-22T15:39:48.038Z,5.80
2017-12-22T15:42:15.258Z,6.00
2017-12-22T15:44:41.590Z,5.90
2017-12-22T15:47:07.915Z,5.90
2017-12-22T15:49:34.260Z,5.80
2017-12-22T15:52:00.678Z,5.90
2017-12-22T15:54:27.006Z,5.90
2017-12-22T15:56:53.355Z,5.90
2017-12-22T15:59:19.697Z,5.90
2017-12-22T16:01:46.938Z,5.90
2017-12-22T16:04:13.257Z,5.90
2017-12-22T16:06:39.638Z,5.80
2017-12-22T16:09:06.702Z,5.80
2017-12-22T16:11:33.046Z,5.80
2017-12-22T16:13:59.396Z,5.70
2017-12-22T16:16:25.748Z,5.70
2017-12-22T16:18:52.954Z,5.70
2017-12-22T16:21:19.302Z,5.80
2017-12-22T16:23:45.641Z,5.90
2017-12-22T16:26:11.978Z,5.80
2017-12-22T16:28:38.298Z,5.80
2017-12-22T16:31:04.666Z,5.90
2017-12-22T16:33:32.322Z,6.00
2017-12-22T16:35:59.470Z,5.90
2017-12-22T16:38:25.794Z,5.90
2017-12-22T16:40:52.125Z,6.00
2017-12-22T16:43:18.449Z,6.00
2017-12-22T16:45:45.296Z,5.90
2017-12-22T16:48:11.625Z,5.90
2017-12-22T16:50:37.943Z,5.90
2017-12-22T16:53:04.266Z,5.90
2017-12-22T16:55:30.612Z,5.90
2017-12-22T16:57:57.273Z,5.90
2017-12-22T17:00:24.338Z,5.90
2017-12-22T17:02:52.443Z,5.90
2017-12-22T17:05:19.518Z,5.80
2017-12-22T17:07:45.852Z,5.80
2017-12-22T17:10:12.207Z,5.80
2017-12-22T17:12:38.527Z,5.80
2017-12-22T17:15:04.860Z,5.90
2017-12-22T17:17:31.186Z,5.90
2017-12-22T17:19:57.590Z,6.00
2017-12-22T17:22:23.928Z,6.10
2017-12-22T17:24:50.274Z,6.00
2017-12-22T17:27:16.618Z,6.00
2017-12-22T17:29:42.975Z,6.00
2017-12-22T17:32:10.037Z,6.00
2017-12-22T17:34:36.359Z,6.00
2017-12-22T17:37:03.450Z,5.80
2017-12-22T17:39:29.770Z,5.80
2017-12-22T17:41:56.110Z,5.90
2017-12-22T17:44:22.438Z,5.80
2017-12-22T17:46:49.426Z,5.80
2017-12-22T17:49:15.750Z,5.80
2017-12-22T17:51:42.102Z,5.80
2017-12-22T17:54:09.164Z,5.90
2017-12-22T17:56:36.250Z,5.80
2017-12-22T17:59:02.585Z,5.70
2017-12-22T18:01:28.921Z,5.70
2017-12-22T18:03:55.259Z,5.80
2017-12-22T18:06:21.640Z,6.00
2017-12-22T18:08:48.765Z,5.90
2017-12-22T18:11:15.153Z,5.90
2017-12-22T18:13:41.510Z,5.90
2017-12-22T18:16:07.846Z,5.90
2017-12-22T18:18:34.190Z,5.90
2017-12-22T18:21:00.582Z,5.90
2017-12-22T18:23:26.967Z,6.00
2017-12-22T18:25:53.343Z,6.10
2017-12-22T18:28:19.671Z,6.00
2017-12-22T18:30:46.074Z,6.00
2017-12-22T18:33:13.176Z,6.10
2017-12-22T18:35:39.533Z,6.10
2017-12-22T18:38:05.910Z,6.00
2017-12-22T18:40:32.271Z,5.90
2017-12-22T18:42:58.634Z,6.00
2017-12-22T18:45:25.020Z,5.90
2017-12-22T18:47:51.344Z,5.90
2017-12-22T18:50:17.790Z,6.00
2017-12-22T18:52:44.314Z,6.10
2017-12-22T18:55:10.712Z,6.10
2017-12-22T18:57:37.035Z,6.10
2017-12-22T19:00:04.184Z,6.00
2017-12-22T19:02:30.519Z,6.00
2017-12-22T19:04:56.875Z,6.00
2017-12-22T19:07:23.962Z,6.10
2017-12-22T19:09:50.479Z,6.00
2017-12-22T19:12:17.875Z,6.00
2017-12-22T19:14:44.288Z,6.10
2017-12-22T19:17:10.619Z,6.20
2017-12-22T19:19:36.974Z,6.30
2017-12-22T19:22:05.705Z,6.30
2017-12-22T19:24:32.983Z,6.10
2017-12-22T19:26:59.949Z,6.10
2017-12-22T19:29:26.275Z,6.10
2017-12-22T19:31:53.186Z,6.00
2017-12-22T19:34:19.506Z,6.00
2017-12-22T19:36:46.568Z,6.00
2017-12-22T19:39:12.927Z,6.00
2017-12-22T19:41:39.287Z,6.10
2017-12-22T19:44:05.615Z,6.10
2017-12-22T19:46:32.014Z,6.00
2017-12-22T19:48:58.366Z,6.10
2017-12-22T19:51:24.726Z,6.00
2017-12-22T19:53:51.119Z,6.00
2017-12-22T19:56:17.446Z,6.00
2017-12-22T19:58:43.830Z,5.90
2017-12-22T20:01:10.248Z,5.90
2017-12-22T20:03:36.627Z,6.00
2017-12-22T20:06:02.985Z,6.00
2017-12-22T20:08:29.319Z,5.80
2017-12-22T20:10:55.652Z,5.80
2017-12-22T20:13:21.994Z,5.80
2017-12-22T20:15:49.046Z,5.70
2017-12-22T20:18:15.403Z,5.80
2017-12-22T20:20:41.806Z,5.90
2017-12-22T20:23:08.882Z,5.80
2017-12-22T20:25:35.203Z,5.80
2017-12-22T20:28:01.551Z,5.80
2017-12-22T20:30:29.675Z,5.90
2017-12-22T20:32:56.230Z,5.80
2017-12-22T20:35:22.558Z,5.90
2017-12-22T20:37:48.926Z,5.90
2017-12-22T20:40:16.060Z,5.80
2017-12-22T20:42:42.426Z,5.80
2017-12-22T20:45:09.530Z,6.00
2017-12-22T20:47:37.030Z,6.00
2017-12-22T20:50:04.119Z,6.00
2017-12-22T20:52:30.783Z,5.90
2017-12-22T20:54:57.189Z,5.90
2017-12-22T20:57:23.659Z,5.90
2017-12-22T20:59:50.019Z,6.10
2017-12-22T21:02:17.178Z,6.10
2017-12-22T21:04:43.535Z,6.10
2017-12-22T21:07:09.910Z,6.10
2017-12-22T21:09:36.218Z,6.00
2017-12-22T21:12:02.583Z,6.10
2017-12-22T21:14:29.821Z,6.10
2017-12-22T21:16:56.164Z,6.10
2017-12-22T21:19:22.517Z,6.10
2017-12-22T21:21:49.579Z,6.10
2017-12-22T21:24:15.909Z,6.10
2017-12-22T21:26:42.270Z,6.10
2017-12-22T21:29:08.662Z,6.10
2017-12-22T21:31:35.763Z,6.10
2017-12-22T21:34:02.194Z,6.10
2017-12-22T21:36:29.543Z,6.20
2017-12-22T21:38:55.879Z,6.20
2017-12-22T21:41:22.259Z,6.20
2017-12-22T21:43:48.577Z,6.30
2017-12-22T21:46:14.902Z,6.20
2017-12-22T21:48:41.282Z,6.20
2017-12-22T21:51:07.658Z,6.20
2017-12-22T21:53:34.014Z,6.10
2017-12-22T21:56:01.084Z,6.10
2017-12-22T21:58:27.402Z,6.10
2017-12-22T22:00:54.475Z,6.20
2017-12-22T22:03:20.815Z,6.20
2017-12-22T22:05:47.171Z,6.20
2017-12-22T22:08:13.507Z,6.20
2017-12-22T22:10:39.842Z,6.30
2017-12-22T22:13:06.189Z,6.30
2017-12-22T22:15:32.535Z,6.20
2017-12-22T22:17:59.643Z,6.20
2017-12-22T22:20:25.979Z,6.20
2017-12-22T22:22:52.334Z,6.30
2017-12-22T22:25:18.672Z,6.20
2017-12-22T22:27:44.998Z,6.10
2017-12-22T22:30:11.344Z,6.10
2017-12-22T22:32:39.407Z,6.20
2017-12-22T22:35:06.484Z,6.10
2017-12-22T22:37:32.890Z,6.10
2017-12-22T22:39:59.970Z,6.10
2017-12-22T22:42:26.303Z,6.10
2017-12-22T22:44:52.663Z,6.10
2017-12-22T22:47:19.003Z,6.20
2017-12-22T22:49:45.331Z,6.10
2017-12-22T22:52:11.675Z,6.10
2017-12-22T22:54:38.009Z,6.10
2017-12-22T22:57:04.347Z,6.10
2017-12-22T22:59:30.688Z,6.20
2017-12-22T23:01:57.010Z,6.10
2017-12-22T23:04:23.345Z,6.10
2017-12-22T23:06:49.695Z,6.00
2017-12-22T23:09:16.759Z,6.10
2017-12-22T23:11:43.093Z,6.10
2017-12-22T23:14:09.435Z,6.00
2017-12-22T23:16:36.557Z,6.00
2017-12-22T23:19:03.666Z,5.90
2017-12-22T23:21:30.002Z,5.90
2017-12-22T23:23:56.345Z,5.90
2017-12-22T23:26:22.791Z,5.90
2017-12-22T23:28:49.115Z,6.00
2017-12-22T23:31:15.461Z,6.10
2017-12-22T23:33:41.854Z,6.20
2017-12-22T23:36:08.211Z,6.20
2017-12-22T23:38:34.562Z,6.10
2017-12-22T23:41:01.644Z,6.10
2017-12-22T23:43:27.992Z,6.10
2017-12-22T23:45:54.346Z,6.00
2017-12-22T23:48:20.746Z,6.00
2017-12-22T23:50:47.110Z,5.90
2017-12-22T23:53:13.463Z,6.00
2017-12-22T23:55:40.578Z,6.00
2017-12-22T23:58:06.935Z,6.00
